Shin Mei Maru — JG5617 — position and weather

sailwx.info

Track history (hours):
 
Tides and Currents Weather Stations Pressure Air Temp Water Temp Dewpoint Dewpoint Depression Visibility Wind Speed Wind Dir Waves Ship Positions

Shin Mei Maru

Last reported at 2014-Jul-31 11:25 UTC. Time now 2014-Aug-01 11:53 UTC.
Position N 33°57' E 134°57'.

Length 160 m; draft 6.8 m.

Type: Cargo ship. MMSI: 431100922.

Date/timePositionNaut miles runAvg speedWind from/ knotsBaromVisibWave heightAir tempDewpointWater temp
2014-Jul-31 11:25N 33°57' E 134°57'1416.0
2014-Jul-31 10:33N 34°11' E 134°58'1716.6
2014-Jul-31 09:33N 34°27' E 135°04'1717.0
2014-Jul-31 08:33N 34°36' E 135°21'3 0.4
2014-Jul-31 01:30N 34°37' E 135°25'1011.0
2014-Jul-31 00:33N 34°33' E 135°13'1918.7
2014-Jul-30 23:33N 34°18' E 134°59'1919.4
2014-Jul-30 22:33N 33°59' E 134°59'22816.0
2014-Jul-30 08:20N 34°57' E 139°26'1518.7
2014-Jul-30 07:33N 35°05' E 139°41'1413.5
2014-Jul-30 06:33N 35°19' E 139°44'1514.7
2014-Jul-30 05:33N 35°32' E 139°51'7 7.0
2014-Jul-30 04:34N 35°38' E 139°46'0 0.0
2014-Jul-30 03:22N 35°38' E 139°46'0 0.0
2014-Jul-30 02:28N 35°38' E 139°46'0 0.0
2014-Jul-30 01:31N 35°38' E 139°46'0 0.0
2014-Jul-30 00:31N 35°38' E 139°46'0 0.0
2014-Jul-29 23:31N 35°38' E 139°46'0 0.0
2014-Jul-29 22:28N 35°38' E 139°46'1 0.9
2014-Jul-29 21:34N 35°37' E 139°46'1312.5
2014-Jul-29 20:33N 35°24' E 139°47'1212.0
2014-Jul-29 19:33N 35°12' E 139°47'1817.6
2014-Jul-29 18:33N 34°55' E 139°45'1615.5
2014-Jul-29 17:33N 34°54' E 140°04'1817.6
2014-Jul-29 16:33N 35°02' E 140°22'1515.3
2014-Jul-29 15:33N 35°13' E 140°35'1717.3
2014-Jul-29 14:33N 35°28' E 140°47'1818.0
2014-Jul-29 13:32N 35°43' E 141°00'1818.1
2014-Jul-29 12:34N 35°60' E 141°07'1918.6
2014-Jul-29 11:32N 36°18' E 141°10'2018.8
2014-Jul-29 10:30N 36°38' E 141°15'  
2014-Jul-25 22:13N 36°59' E 141°19'1218.8
2014-Jul-25 21:34N 36°47' E 141°17'2018.6
2014-Jul-25 20:28N 36°27' E 141°12'1718.6
2014-Jul-25 19:34N 36°11' E 141°08'1818.0
2014-Jul-25 18:33N 35°53' E 141°04'1818.0
2014-Jul-25 17:34N 35°36' E 140°58'1818.2
2014-Jul-25 16:33N 35°21' E 140°44'1918.9
2014-Jul-25 15:33N 35°07' E 140°29'2020.4
2014-Jul-25 14:34N 34°55' E 140°09'1919.2
2014-Jul-25 13:34N 34°51' E 139°46'1717.4
2014-Jul-25 12:34N 35°08' E 139°45'1414.1
2014-Jul-25 11:33N 35°22' E 139°42'1413.8
2014-Jul-25 10:33N 35°35' E 139°47'3 3.2
2014-Jul-25 09:33N 35°38' E 139°46'0 0.0
2014-Jul-25 08:33N 35°38' E 139°46'0 0.0
2014-Jul-25 07:27N 35°38' E 139°46'0 0.0
2014-Jul-25 06:27N 35°38' E 139°46'0 0.0
2014-Jul-25 05:33N 35°38' E 139°46'0 0.0
2014-Jul-25 04:33N 35°38' E 139°46'0 0.0
2014-Jul-25 03:33N 35°38' E 139°46'0 0.0
2014-Jul-25 02:33N 35°38' E 139°46'0 0.0
2014-Jul-25 01:33N 35°38' E 139°46'0 0.0
2014-Jul-25 00:33N 35°38' E 139°46'0 0.0
2014-Jul-24 23:33N 35°38' E 139°46'0 0.0
2014-Jul-24 22:30N 35°38' E 139°46'2 2.0
2014-Jul-24 21:33N 35°36' E 139°47'1312.9
2014-Jul-24 20:34N 35°23' E 139°46'1211.9
2014-Jul-24 19:34N 35°12' E 139°47'1717.3
2014-Jul-24 18:33N 34°54' E 139°46'1514.9
2014-Jul-24 17:32N 34°54' E 140°04'1716.5
2014-Jul-24 16:31N 35°01' E 140°23'2017.6
2014-Jul-24 15:21N 35°16' E 140°38'1518.6
2014-Jul-24 14:34N 35°28' E 140°50'1818.1
2014-Jul-24 13:32N 35°43' E 141°02'1818.7
2014-Jul-24 12:33N 36°02' E 141°06'1918.7
2014-Jul-24 11:34N 36°20' E 141°10'  
Track history (hours):
 
Tides and Currents Weather Stations Pressure Air Temp Water Temp Dewpoint Dewpoint Depression Visibility Wind Speed Wind Dir Waves Ship Positions

Shin Mei Maru

Last reported at 2014-Jul-31 11:25 UTC. Time now 2014-Aug-01 11:53 UTC.
Position N 33°57' E 134°57'.

Length 160 m; draft 6.8 m.

Type: Cargo ship. MMSI: 431100922.

Date/timePositionNaut miles runAvg speedWind from/ knotsBaromVisibWave heightAir tempDewpointWater temp
2014-Jul-31 11:25N 33°57' E 134°57'1416.0
2014-Jul-31 10:33N 34°11' E 134°58'1716.6
2014-Jul-31 09:33N 34°27' E 135°04'1717.0
2014-Jul-31 08:33N 34°36' E 135°21'3 0.4
2014-Jul-31 01:30N 34°37' E 135°25'1011.0
2014-Jul-31 00:33N 34°33' E 135°13'1918.7
2014-Jul-30 23:33N 34°18' E 134°59'1919.4
2014-Jul-30 22:33N 33°59' E 134°59'22816.0
2014-Jul-30 08:20N 34°57' E 139°26'1518.7
2014-Jul-30 07:33N 35°05' E 139°41'1413.5
2014-Jul-30 06:33N 35°19' E 139°44'1514.7
2014-Jul-30 05:33N 35°32' E 139°51'7 7.0
2014-Jul-30 04:34N 35°38' E 139°46'0 0.0
2014-Jul-30 03:22N 35°38' E 139°46'0 0.0
2014-Jul-30 02:28N 35°38' E 139°46'0 0.0
2014-Jul-30 01:31N 35°38' E 139°46'0 0.0
2014-Jul-30 00:31N 35°38' E 139°46'0 0.0
2014-Jul-29 23:31N 35°38' E 139°46'0 0.0
2014-Jul-29 22:28N 35°38' E 139°46'1 0.9
2014-Jul-29 21:34N 35°37' E 139°46'1312.5
2014-Jul-29 20:33N 35°24' E 139°47'1212.0
2014-Jul-29 19:33N 35°12' E 139°47'1817.6
2014-Jul-29 18:33N 34°55' E 139°45'1615.5
2014-Jul-29 17:33N 34°54' E 140°04'1817.6
2014-Jul-29 16:33N 35°02' E 140°22'1515.3
2014-Jul-29 15:33N 35°13' E 140°35'1717.3
2014-Jul-29 14:33N 35°28' E 140°47'1818.0
2014-Jul-29 13:32N 35°43' E 141°00'1818.1
2014-Jul-29 12:34N 35°60' E 141°07'1918.6
2014-Jul-29 11:32N 36°18' E 141°10'2018.8
2014-Jul-29 10:30N 36°38' E 141°15'  
2014-Jul-25 22:13N 36°59' E 141°19'1218.8
2014-Jul-25 21:34N 36°47' E 141°17'2018.6
2014-Jul-25 20:28N 36°27' E 141°12'1718.6
2014-Jul-25 19:34N 36°11' E 141°08'1818.0
2014-Jul-25 18:33N 35°53' E 141°04'1818.0
2014-Jul-25 17:34N 35°36' E 140°58'1818.2
2014-Jul-25 16:33N 35°21' E 140°44'1918.9
2014-Jul-25 15:33N 35°07' E 140°29'2020.4
2014-Jul-25 14:34N 34°55' E 140°09'1919.2
2014-Jul-25 13:34N 34°51' E 139°46'1717.4
2014-Jul-25 12:34N 35°08' E 139°45'1414.1
2014-Jul-25 11:33N 35°22' E 139°42'1413.8
2014-Jul-25 10:33N 35°35' E 139°47'3 3.2
2014-Jul-25 09:33N 35°38' E 139°46'0 0.0
2014-Jul-25 08:33N 35°38' E 139°46'0 0.0
2014-Jul-25 07:27N 35°38' E 139°46'0 0.0
2014-Jul-25 06:27N 35°38' E 139°46'0 0.0
2014-Jul-25 05:33N 35°38' E 139°46'0 0.0
2014-Jul-25 04:33N 35°38' E 139°46'0 0.0
2014-Jul-25 03:33N 35°38' E 139°46'0 0.0
2014-Jul-25 02:33N 35°38' E 139°46'0 0.0
2014-Jul-25 01:33N 35°38' E 139°46'0 0.0
2014-Jul-25 00:33N 35°38' E 139°46'0 0.0
2014-Jul-24 23:33N 35°38' E 139°46'0 0.0
2014-Jul-24 22:30N 35°38' E 139°46'2 2.0
2014-Jul-24 21:33N 35°36' E 139°47'1312.9
2014-Jul-24 20:34N 35°23' E 139°46'1211.9
2014-Jul-24 19:34N 35°12' E 139°47'1717.3
2014-Jul-24 18:33N 34°54' E 139°46'1514.9
2014-Jul-24 17:32N 34°54' E 140°04'1716.5
2014-Jul-24 16:31N 35°01' E 140°23'2017.6
2014-Jul-24 15:21N 35°16' E 140°38'1518.6
2014-Jul-24 14:34N 35°28' E 140°50'1818.1
2014-Jul-24 13:32N 35°43' E 141°02'1818.7
2014-Jul-24 12:33N 36°02' E 141°06'1918.7
2014-Jul-24 11:34N 36°20' E 141°10'  

Dump ship's entire track history